Time;durP1;ratioP1;P1;durP2;ratioP2;P2;SDS_P1;SDS_P2;PMS_P1;PMS_P2;Temp;Humidity;BMP_temperature;BMP_pressure;BME280_temperature;BME280_humidity;BME280_pressure;Samples;Min_cycle;Max_cycle;Signal;HPM_P1;HPM_P2
2022/10/10 00:01:18;;;;;;;0.40;0.40;;;20.80;44.60;;;;;;4914010;29;20232;-37
2022/10/10 00:03:49;;;;;;;1.23;0.50;;;20.90;44.60;;;;;;4916372;29;20680;-36
2022/10/10 00:06:20;;;;;;;1.63;0.52;;;20.90;44.50;;;;;;4932932;29;20200;-37
2022/10/10 00:08:53;;;;;;;0.57;0.30;;;20.90;44.40;;;;;;4932751;29;20207;-36
2022/10/10 00:11:25;;;;;;;0.70;0.43;;;21.00;44.50;;;;;;4933830;29;20284;-36
2022/10/10 00:13:56;;;;;;;3.28;0.95;;;21.00;44.40;;;;;;4915380;29;20224;-39
2022/10/10 00:16:27;;;;;;;1.73;0.73;;;21.00;45.00;;;;;;4924644;29;20293;-40
2022/10/10 00:18:58;;;;;;;2.33;0.75;;;21.00;44.30;;;;;;4932160;29;20242;-40
2022/10/10 00:21:29;;;;;;;2.47;0.68;;;21.00;44.30;;;;;;4933000;29;20200;-36
2022/10/10 00:24:01;;;;;;;3.22;0.63;;;21.10;44.30;;;;;;4932403;29;20223;-42
2022/10/10 00:26:32;;;;;;;1.05;0.60;;;21.10;44.20;;;;;;4932832;29;20204;-37
2022/10/10 00:29:03;;;;;;;0.88;0.43;;;21.10;44.20;;;;;;4932183;29;20280;-40
2022/10/10 00:31:34;;;;;;;2.80;0.50;;;21.10;44.20;;;;;;4913616;29;20535;-37
2022/10/10 00:34:04;;;;;;;1.20;0.70;;;21.10;44.20;;;;;;4913704;29;20228;-38
2022/10/10 00:36:35;;;;;;;1.52;0.57;;;21.20;44.20;;;;;;4924237;29;20204;-41
2022/10/10 00:39:08;;;;;;;0.75;0.50;;;21.20;44.20;;;;;;4932686;29;20231;-41
2022/10/10 00:41:38;;;;;;;0.77;0.30;;;21.20;44.20;;;;;;4933703;29;20575;-36
2022/10/10 00:44:12;;;;;;;0.80;0.40;;;21.20;44.30;;;;;;4931950;29;20216;-40
2022/10/10 00:46:43;;;;;;;0.30;0.30;;;21.20;44.20;;;;;;4930766;29;20199;-37
2022/10/10 00:49:17;;;;;;;0.52;0.35;;;21.30;44.20;;;;;;4923600;29;20200;-40
2022/10/10 00:51:50;;;;;;;0.30;0.30;;;21.30;44.20;;;;;;4924249;29;20209;-37
2022/10/10 00:54:24;;;;;;;1.52;0.32;;;21.30;44.10;;;;;;4935587;29;20230;-39
2022/10/10 00:57:00;;;;;;;0.63;0.20;;;21.30;44.10;;;;;;4935972;29;20210;-40
2022/10/10 00:59:35;;;;;;;0.60;0.40;;;21.30;44.00;;;;;;4935481;29;20710;-37
2022/10/10 01:02:06;;;;;;;0.82;0.22;;;21.40;44.00;;;;;;4935511;29;20195;-36
2022/10/10 01:04:39;;;;;;;1.95;0.47;;;21.40;43.90;;;;;;4934965;29;20223;-36
2022/10/10 01:07:12;;;;;;;1.17;0.22;;;21.40;43.80;;;;;;4935136;29;20196;-44
2022/10/10 01:09:47;;;;;;;0.50;0.32;;;21.40;43.90;;;;;;4934738;29;20203;-37
2022/10/10 01:12:24;;;;;;;0.20;0.20;;;21.50;43.80;;;;;;4940702;29;20202;-38
2022/10/10 01:15:03;;;;;;;0.40;0.32;;;21.50;43.80;;;;;;4934859;29;20219;-37
2022/10/10 01:17:39;;;;;;;0.30;0.30;;;21.50;43.90;;;;;;4920736;29;20199;-37
2022/10/10 01:20:38;;;;;;;1.38;0.28;;;21.50;43.90;;;;;;4932771;29;20682;-41
2022/10/10 01:23:52;;;;;;;0.35;0.35;;;21.50;43.90;;;;;;4929148;29;20599;-37
2022/10/10 01:26:46;;;;;;;0.17;0.17;;;21.50;43.90;;;;;;4924319;29;20261;-37
2022/10/10 01:29:29;;;;;;;0.20;0.20;;;21.60;43.90;;;;;;4926413;29;20207;-37
2022/10/10 01:32:07;;;;;;;0.20;0.20;;;21.60;43.80;;;;;;4935606;29;20299;-37
2022/10/10 01:34:47;;;;;;;0.30;0.30;;;21.60;43.80;;;;;;4934869;29;20227;-36
2022/10/10 01:37:21;;;;;;;0.60;0.30;;;21.60;43.70;;;;;;4917206;29;20204;-41
2022/10/10 01:39:58;;;;;;;1.08;0.20;;;21.70;43.80;;;;;;4915916;29;20204;-36
2022/10/10 01:42:35;;;;;;;0.98;0.20;;;21.60;43.70;;;;;;4916507;29;20196;-37
2022/10/10 01:45:09;;;;;;;1.65;0.40;;;21.70;43.80;;;;;;4916836;29;20223;-40
2022/10/10 01:47:40;;;;;;;0.30;0.22;;;21.70;43.80;;;;;;4916438;29;20192;-36
2022/10/10 01:50:13;;;;;;;0.65;0.38;;;21.70;43.80;;;;;;4916805;29;20204;-36
2022/10/10 01:52:53;;;;;;;0.68;0.20;;;21.70;43.90;;;;;;4915885;29;20196;-38
2022/10/10 01:55:35;;;;;;;1.10;0.32;;;21.80;43.90;;;;;;4923657;29;20266;-36
2022/10/10 01:58:15;;;;;;;0.30;0.20;;;21.80;43.90;;;;;;4921871;29;20223;-37
2022/10/10 02:00:52;;;;;;;0.15;0.15;;;21.80;43.90;;;;;;4916412;29;20207;-41
2022/10/10 02:03:27;;;;;;;0.80;0.30;;;21.80;43.90;;;;;;4915955;29;20196;-36
2022/10/10 02:06:01;;;;;;;0.68;0.30;;;21.90;43.90;;;;;;4915853;29;20210;-36
2022/10/10 02:08:35;;;;;;;0.55;0.30;;;21.90;43.80;;;;;;4916068;29;20292;-42
2022/10/10 02:11:09;;;;;;;1.33;0.30;;;21.90;43.80;;;;;;4916674;29;20546;-41
2022/10/10 02:13:44;;;;;;;0.20;0.20;;;21.90;43.70;;;;;;4934252;29;20219;-38
2022/10/10 02:16:19;;;;;;;0.88;0.30;;;22.00;43.70;;;;;;4916439;29;20576;-39
2022/10/10 02:18:52;;;;;;;1.60;0.30;;;22.00;43.70;;;;;;4915579;29;20230;-40
2022/10/10 02:21:24;;;;;;;1.95;0.20;;;22.00;43.70;;;;;;4930729;29;20215;-43
2022/10/10 02:23:57;;;;;;;1.08;0.30;;;22.00;43.70;;;;;;4934956;29;20227;-41
2022/10/10 02:26:30;;;;;;;0.70;0.20;;;22.00;43.70;;;;;;4934901;29;20203;-46
2022/10/10 02:29:04;;;;;;;0.80;0.20;;;22.10;43.80;;;;;;4924993;29;20238;-42
2022/10/10 02:31:41;;;;;;;3.28;0.57;;;22.10;43.80;;;;;;4934324;29;20208;-41
2022/10/10 02:34:15;;;;;;;0.60;0.20;;;22.10;43.80;;;;;;4923397;29;20576;-40
2022/10/10 02:36:50;;;;;;;0.43;0.20;;;22.10;43.70;;;;;;4915586;29;20200;-37
2022/10/10 02:39:23;;;;;;;0.73;0.38;;;22.20;43.60;;;;;;4916006;29;20223;-37
2022/10/10 02:41:55;;;;;;;2.15;0.25;;;22.20;43.50;;;;;;4915165;29;20204;-36
2022/10/10 02:44:27;;;;;;;0.43;0.20;;;22.20;43.50;;;;;;4915666;29;20223;-36
2022/10/10 02:46:59;;;;;;;0.20;0.20;;;22.30;43.50;;;;;;4928461;29;20207;-36
2022/10/10 02:49:31;;;;;;;0.70;0.32;;;22.30;43.40;;;;;;4933630;29;20214;-39
2022/10/10 02:52:02;;;;;;;0.30;0.20;;;22.30;43.40;;;;;;4918708;29;20215;-41
2022/10/10 02:54:33;;;;;;;1.10;0.40;;;22.30;43.40;;;;;;4934404;29;20219;-36
2022/10/10 02:57:04;;;;;;;0.38;0.20;;;22.30;43.30;;;;;;4932309;29;20226;-36
2022/10/10 02:59:35;;;;;;;1.05;0.60;;;22.30;43.40;;;;;;4915304;29;20231;-37
2022/10/10 03:02:07;;;;;;;0.10;0.10;;;22.40;43.30;;;;;;4915822;29;20204;-36
2022/10/10 03:04:38;;;;;;;0.20;0.20;;;22.40;43.40;;;;;;4914201;29;20224;-40
2022/10/10 03:07:09;;;;;;;2.03;0.30;;;22.40;43.50;;;;;;4915026;29;20200;-36
2022/10/10 03:09:39;;;;;;;0.77;0.13;;;22.40;43.50;;;;;;4929328;29;20203;-36
2022/10/10 03:12:10;;;;;;;1.45;0.22;;;22.40;43.40;;;;;;4929008;29;20976;-36
2022/10/10 03:14:41;;;;;;;1.38;0.55;;;22.50;43.30;;;;;;4933599;29;21006;-37
2022/10/10 03:17:14;;;;;;;0.47;0.40;;;22.40;43.30;;;;;;4933206;29;20204;-37
2022/10/10 03:19:44;;;;;;;1.23;0.40;;;22.50;43.20;;;;;;4933638;29;20235;-40
2022/10/10 03:22:15;;;;;;;0.98;0.55;;;22.50;43.20;;;;;;4932837;29;20199;-40
2022/10/10 03:24:46;;;;;;;1.52;0.50;;;22.50;43.10;;;;;;4930452;29;20211;-38
2022/10/10 03:27:16;;;;;;;0.55;0.30;;;22.50;43.20;;;;;;4930366;29;20213;-38
2022/10/10 03:29:47;;;;;;;0.35;0.15;;;22.50;43.10;;;;;;4922436;29;20211;-38
2022/10/10 03:32:20;;;;;;;0.38;0.20;;;22.50;43.10;;;;;;4933579;29;20214;-38
2022/10/10 03:34:50;;;;;;;0.90;0.25;;;22.50;43.00;;;;;;4932710;29;20827;-37
2022/10/10 03:37:21;;;;;;;1.30;0.38;;;22.50;42.90;;;;;;4933381;29;20206;-37
2022/10/10 03:39:52;;;;;;;0.75;0.40;;;22.50;42.90;;;;;;4934053;29;20235;-39
2022/10/10 03:42:23;;;;;;;0.70;0.30;;;22.50;43.00;;;;;;4933163;29;20199;-39
2022/10/10 03:44:54;;;;;;;0.35;0.20;;;22.50;43.00;;;;;;4933350;29;20223;-39
2022/10/10 03:47:26;;;;;;;0.52;0.30;;;22.50;43.10;;;;;;4933877;29;20659;-40
2022/10/10 03:49:57;;;;;;;0.75;0.35;;;22.50;43.10;;;;;;4923800;29;20208;-39
2022/10/10 03:52:28;;;;;;;0.47;0.25;;;22.50;43.10;;;;;;4914535;29;20752;-40
2022/10/10 03:54:58;;;;;;;2.00;0.50;;;22.50;43.10;;;;;;4916793;29;20633;-43
2022/10/10 03:57:29;;;;;;;1.00;0.40;;;22.50;43.20;;;;;;4932019;29;20234;-41
2022/10/10 04:00:00;;;;;;;0.52;0.30;;;22.50;43.00;;;;;;4913697;29;20235;-38
2022/10/10 04:02:33;;;;;;;0.25;0.22;;;22.50;43.00;;;;;;4932484;29;20230;-38
2022/10/10 04:05:04;;;;;;;0.88;0.43;;;22.50;43.00;;;;;;4933325;29;20229;-42
2022/10/10 04:07:35;;;;;;;1.60;0.30;;;22.50;43.00;;;;;;4932604;29;20609;-41
2022/10/10 04:10:06;;;;;;;0.77;0.20;;;22.50;43.10;;;;;;4924443;29;20204;-37
2022/10/10 04:12:37;;;;;;;0.20;0.20;;;22.50;43.10;;;;;;4918680;29;20193;-37
2022/10/10 04:15:08;;;;;;;0.35;0.30;;;22.50;43.00;;;;;;4914506;29;20234;-38
2022/10/10 04:17:41;;;;;;;1.13;0.40;;;22.50;43.10;;;;;;4914191;29;20204;-37
2022/10/10 04:20:12;;;;;;;0.47;0.43;;;22.50;43.20;;;;;;4921313;29;20242;-37
2022/10/10 04:22:42;;;;;;;1.67;0.30;;;22.50;43.20;;;;;;4918056;29;20200;-43
2022/10/10 04:25:13;;;;;;;0.85;0.45;;;22.50;43.20;;;;;;4927781;29;20245;-47
2022/10/10 04:27:44;;;;;;;0.68;0.20;;;22.50;43.20;;;;;;4931448;29;20211;-46
2022/10/10 04:30:15;;;;;;;0.30;0.20;;;22.50;43.30;;;;;;4917226;29;20204;-39
2022/10/10 04:32:48;;;;;;;0.50;0.30;;;22.50;43.20;;;;;;4917653;29;20215;-39
2022/10/10 04:35:19;;;;;;;1.05;0.47;;;22.50;43.20;;;;;;4916937;29;20719;-37
2022/10/10 04:37:49;;;;;;;0.82;0.40;;;22.50;43.20;;;;;;4917417;29;20200;-40
2022/10/10 04:40:20;;;;;;;5.25;0.55;;;22.50;43.20;;;;;;4916892;29;20270;-37
2022/10/10 04:42:51;;;;;;;0.52;0.30;;;22.50;43.30;;;;;;4917739;29;20212;-39
2022/10/10 04:45:25;;;;;;;0.63;0.30;;;22.50;43.30;;;;;;4927145;29;20215;-37
2022/10/10 04:47:58;;;;;;;0.65;0.30;;;22.40;43.30;;;;;;4936889;29;20294;-43
2022/10/10 04:50:29;;;;;;;1.20;0.40;;;22.40;43.30;;;;;;4936636;29;20208;-37
2022/10/10 04:52:59;;;;;;;0.93;0.30;;;22.40;43.30;;;;;;4936827;29;20203;-38
2022/10/10 04:55:30;;;;;;;0.32;0.17;;;22.40;43.30;;;;;;4936293;29;20652;-37
2022/10/10 04:58:01;;;;;;;1.00;0.40;;;22.40;43.20;;;;;;4934617;29;20207;-39
2022/10/10 05:00:32;;;;;;;0.55;0.30;;;22.40;43.20;;;;;;4917487;29;20228;-40
2022/10/10 05:03:04;;;;;;;0.82;0.40;;;22.40;43.30;;;;;;4917695;29;20196;-38
2022/10/10 05:05:35;;;;;;;1.40;0.47;;;22.40;43.30;;;;;;4918029;29;20211;-40
2022/10/10 05:08:09;;;;;;;1.40;0.43;;;22.40;43.30;;;;;;4931022;29;20242;-36
2022/10/10 05:10:41;;;;;;;0.90;0.40;;;22.40;43.30;;;;;;4937069;29;20210;-38
2022/10/10 05:13:22;;;;;;;2.20;0.60;;;22.40;43.50;;;;;;4931273;29;20706;-37
2022/10/10 05:15:54;;;;;;;1.27;0.50;;;22.40;43.50;;;;;;4935631;29;20234;-41
2022/10/10 05:18:26;;;;;;;0.70;0.45;;;22.40;43.50;;;;;;4935734;29;20196;-41
2022/10/10 05:20:57;;;;;;;0.70;0.40;;;22.40;43.40;;;;;;4935599;29;20227;-39
2022/10/10 05:23:28;;;;;;;0.98;0.40;;;22.30;43.40;;;;;;4935078;29;20684;-40
2022/10/10 05:26:01;;;;;;;0.93;0.50;;;22.30;43.40;;;;;;4936072;29;20213;-39
2022/10/10 05:28:34;;;;;;;0.60;0.38;;;22.30;43.40;;;;;;4933855;29;20205;-40
2022/10/10 05:31:04;;;;;;;2.05;0.50;;;22.30;43.30;;;;;;4936219;29;20286;-48
2022/10/10 05:33:37;;;;;;;1.00;0.47;;;22.30;43.30;;;;;;4931045;29;20223;-42
2022/10/10 05:36:10;;;;;;;0.43;0.40;;;22.30;43.30;;;;;;4917224;29;20673;-38
2022/10/10 05:38:41;;;;;;;1.00;0.40;;;22.30;43.20;;;;;;4917200;29;20205;-44
2022/10/10 05:41:12;;;;;;;1.13;0.50;;;22.30;43.20;;;;;;4916775;29;20200;-41
2022/10/10 05:43:43;;;;;;;1.05;0.40;;;22.30;43.20;;;;;;4917224;29;20622;-40
2022/10/10 05:46:14;;;;;;;0.57;0.28;;;22.20;43.20;;;;;;4916701;29;20210;-43
2022/10/10 05:48:46;;;;;;;1.27;0.40;;;22.30;43.40;;;;;;4920746;29;20570;-45
2022/10/10 05:51:17;;;;;;;0.95;0.40;;;22.20;43.40;;;;;;4917255;29;20586;-44
2022/10/10 05:53:48;;;;;;;2.35;0.43;;;22.20;43.50;;;;;;4916761;29;20209;-44
2022/10/10 05:56:18;;;;;;;1.10;0.60;;;22.20;43.40;;;;;;4924256;29;20592;-43
2022/10/10 05:58:50;;;;;;;3.05;0.57;;;22.20;43.50;;;;;;4929700;29;20189;-37
2022/10/10 06:01:20;;;;;;;1.25;0.70;;;22.20;43.40;;;;;;4915959;29;20241;-46
2022/10/10 06:03:54;;;;;;;0.90;0.60;;;22.20;43.40;;;;;;4915655;29;20223;-37
2022/10/10 06:06:26;;;;;;;1.55;0.63;;;22.20;43.30;;;;;;4916634;29;20287;-40
2022/10/10 06:08:57;;;;;;;3.10;1.10;;;22.20;43.30;;;;;;4915790;29;20207;-46
2022/10/10 06:11:28;;;;;;;1.40;1.10;;;22.10;43.30;;;;;;4919064;29;20679;-39
2022/10/10 06:13:59;;;;;;;2.05;1.00;;;22.20;43.30;;;;;;4917513;29;20224;-41
2022/10/10 06:16:30;;;;;;;2.80;1.00;;;22.10;43.30;;;;;;4916036;29;20204;-44
2022/10/10 06:19:02;;;;;;;2.00;1.10;;;22.10;43.30;;;;;;4916388;29;20557;-40
2022/10/10 06:21:33;;;;;;;3.83;1.30;;;22.10;43.30;;;;;;4915623;29;20688;-44
2022/10/10 06:24:04;;;;;;;3.00;1.70;;;22.10;43.30;;;;;;4915876;29;20219;-43
2022/10/10 06:26:35;;;;;;;2.83;1.30;;;22.10;43.30;;;;;;4925364;29;20203;-38
2022/10/10 06:29:06;;;;;;;2.17;1.42;;;22.10;43.50;;;;;;4928658;29;20200;-44
2022/10/10 06:31:40;;;;;;;2.25;1.42;;;22.00;43.40;;;;;;4915787;29;20200;-42
2022/10/10 06:34:12;;;;;;;3.10;1.95;;;22.00;43.50;;;;;;4916488;29;20224;-45
2022/10/10 06:36:43;;;;;;;2.63;1.60;;;22.00;43.40;;;;;;4915254;29;20204;-39
2022/10/10 06:39:14;;;;;;;4.38;2.08;;;22.00;43.40;;;;;;4914715;29;20207;-39
2022/10/10 06:41:44;;;;;;;3.38;1.73;;;22.00;43.40;;;;;;4933206;29;20596;-37
2022/10/10 06:44:15;;;;;;;4.05;1.92;;;22.00;43.40;;;;;;4932920;29;20220;-44
2022/10/10 06:46:46;;;;;;;3.08;1.48;;;22.00;43.40;;;;;;4940972;29;20536;-37
2022/10/10 06:49:19;;;;;;;3.55;2.00;;;22.00;43.40;;;;;;4952396;28;20199;-43
2022/10/10 06:51:49;;;;;;;3.22;1.80;;;22.00;43.50;;;;;;4952388;28;20647;-44
2022/10/10 06:54:20;;;;;;;3.45;1.50;;;22.00;43.50;;;;;;4952959;28;20230;-41
2022/10/10 06:56:51;;;;;;;2.83;1.60;;;21.90;43.50;;;;;;4941023;28;20242;-39
2022/10/10 06:59:22;;;;;;;3.20;1.63;;;21.90;43.60;;;;;;4932951;29;20206;-44
2022/10/10 07:01:52;;;;;;;3.42;1.70;;;21.90;43.70;;;;;;4940584;29;20190;-39
2022/10/10 07:04:25;;;;;;;2.15;1.45;;;21.90;43.80;;;;;;4952438;28;20580;-45
2022/10/10 07:06:56;;;;;;;3.08;1.77;;;21.90;43.80;;;;;;4951965;28;20195;-37
2022/10/10 07:09:26;;;;;;;2.88;1.70;;;21.90;43.80;;;;;;4952265;28;20206;-39
2022/10/10 07:11:57;;;;;;;3.20;1.60;;;21.90;43.70;;;;;;4950565;28;20242;-42
2022/10/10 07:14:28;;;;;;;2.35;1.58;;;21.90;43.70;;;;;;4933677;29;20215;-43
2022/10/10 07:16:59;;;;;;;2.58;1.27;;;21.90;43.80;;;;;;4941051;29;20207;-40
2022/10/10 07:19:31;;;;;;;4.05;1.90;;;21.90;43.70;;;;;;4952246;28;20625;-41
2022/10/10 07:22:02;;;;;;;3.17;1.70;;;21.80;43.70;;;;;;4952338;28;20202;-39
2022/10/10 07:24:33;;;;;;;2.70;1.42;;;21.80;43.80;;;;;;4952042;28;20219;-42
2022/10/10 07:27:04;;;;;;;3.08;1.80;;;21.80;43.90;;;;;;4938861;28;20218;-45
2022/10/10 07:29:34;;;;;;;3.95;1.67;;;21.80;43.90;;;;;;4933036;29;20237;-39
2022/10/10 07:32:05;;;;;;;3.47;1.40;;;21.70;43.90;;;;;;4940448;29;20195;-38
2022/10/10 07:34:38;;;;;;;2.30;1.48;;;21.70;44.10;;;;;;4948309;28;20234;-46
2022/10/10 07:37:09;;;;;;;3.33;1.75;;;21.70;44.00;;;;;;4932122;29;20198;-39
2022/10/10 07:39:40;;;;;;;3.78;1.70;;;21.70;44.00;;;;;;4932310;29;20226;-46
2022/10/10 07:42:11;;;;;;;2.42;1.40;;;21.70;44.10;;;;;;4932768;29;20199;-40
2022/10/10 07:44:41;;;;;;;3.72;1.70;;;21.70;44.10;;;;;;4932579;29;20223;-38
2022/10/10 07:47:12;;;;;;;2.50;1.70;;;21.70;44.30;;;;;;4940681;29;20202;-37
2022/10/10 07:49:45;;;;;;;4.15;1.85;;;21.70;44.40;;;;;;4952090;28;20199;-36
2022/10/10 07:52:15;;;;;;;2.25;1.55;;;21.70;44.50;;;;;;4951729;28;20205;-47
2022/10/10 07:54:46;;;;;;;3.50;1.92;;;21.70;44.40;;;;;;4951415;28;20230;-37
2022/10/10 07:57:17;;;;;;;5.00;1.67;;;21.70;44.40;;;;;;4936353;28;20211;-43
2022/10/10 07:59:47;;;;;;;2.50;1.58;;;21.70;44.50;;;;;;4932597;29;20219;-43
2022/10/10 08:02:18;;;;;;;3.15;1.77;;;21.70;44.50;;;;;;4940549;29;20576;-47
2022/10/10 08:04:51;;;;;;;4.07;1.67;;;21.60;44.50;;;;;;4951408;28;20846;-38
2022/10/10 08:07:22;;;;;;;3.33;1.75;;;21.60;44.60;;;;;;4951645;28;20198;-44
2022/10/10 08:09:53;;;;;;;5.15;2.03;;;21.60;44.60;;;;;;4927710;28;20199;-38
2022/10/10 08:12:23;;;;;;;4.72;1.95;;;21.60;44.60;;;;;;4928127;29;20199;-40
2022/10/10 08:14:54;;;;;;;3.45;2.00;;;21.60;44.60;;;;;;4923955;29;20219;-45
2022/10/10 08:17:25;;;;;;;4.95;1.65;;;21.50;44.50;;;;;;4933981;29;20229;-42
2022/10/10 08:19:57;;;;;;;3.38;1.30;;;21.50;44.50;;;;;;4913875;29;20224;-41
2022/10/10 08:22:29;;;;;;;2.70;1.40;;;21.60;44.60;;;;;;4933788;29;20203;-38
2022/10/10 08:25:00;;;;;;;2.28;1.50;;;21.60;44.60;;;;;;4914486;29;20219;-40
2022/10/10 08:27:31;;;;;;;2.80;1.55;;;21.50;44.50;;;;;;4931723;29;20199;-41
2022/10/10 08:30:02;;;;;;;2.78;1.45;;;21.50;44.60;;;;;;4914249;29;20218;-49
2022/10/10 08:32:32;;;;;;;2.85;1.40;;;21.50;44.60;;;;;;4914027;29;20200;-47
2022/10/10 08:35:05;;;;;;;2.10;1.38;;;21.50;44.70;;;;;;4914110;29;20227;-46
2022/10/10 08:37:36;;;;;;;2.53;1.48;;;21.50;44.80;;;;;;4914547;29;20204;-37
2022/10/10 08:40:07;;;;;;;2.63;1.45;;;21.40;44.80;;;;;;4913912;29;20220;-39
2022/10/10 08:42:42;;;;;;;2.78;1.50;;;21.40;44.80;;;;;;4914005;29;20569;-42
2022/10/10 08:45:16;;;;;;;2.85;1.40;;;21.40;44.90;;;;;;4915280;29;20226;-42
2022/10/10 08:47:51;;;;;;;1.88;1.23;;;21.40;44.90;;;;;;4930873;29;20199;-40
2022/10/10 08:50:27;;;;;;;2.17;1.10;;;21.40;44.90;;;;;;4933287;29;20203;-38
2022/10/10 08:53:00;;;;;;;1.42;1.15;;;21.40;44.90;;;;;;4932543;29;20214;-41
2022/10/10 08:55:34;;;;;;;2.90;1.20;;;21.40;44.90;;;;;;4933489;29;20204;-41
2022/10/10 08:58:09;;;;;;;2.38;1.30;;;21.40;44.90;;;;;;4929880;29;20512;-40
2022/10/10 09:00:43;;;;;;;1.92;1.27;;;21.30;44.80;;;;;;4913565;29;20696;-38
2022/10/10 09:03:23;;;;;;;2.30;1.38;;;21.30;44.90;;;;;;4919484;29;20226;-36
2022/10/10 09:06:09;;;;;;;2.22;1.20;;;21.30;44.90;;;;;;4932980;29;20199;-39
2022/10/10 09:08:52;;;;;;;2.63;1.20;;;21.30;45.00;;;;;;4934220;29;20203;-43
2022/10/10 09:11:39;;;;;;;2.28;1.20;;;21.30;45.00;;;;;;4936429;29;20199;-37
2022/10/10 09:14:22;;;;;;;2.22;1.30;;;21.30;45.10;;;;;;4936397;29;20215;-38
2022/10/10 09:16:59;;;;;;;1.30;1.00;;;21.30;45.10;;;;;;4934911;29;20696;-37
2022/10/10 09:19:41;;;;;;;1.42;1.02;;;21.30;45.20;;;;;;4935649;29;20191;-39
2022/10/10 09:22:17;;;;;;;1.63;1.17;;;21.20;45.10;;;;;;4935783;29;20687;-43
2022/10/10 09:24:51;;;;;;;1.23;0.93;;;21.20;45.10;;;;;;4935694;29;20225;-39
2022/10/10 09:27:26;;;;;;;1.67;1.20;;;21.20;45.10;;;;;;4935047;29;20207;-40
2022/10/10 09:30:03;;;;;;;1.73;0.90;;;21.20;45.10;;;;;;4920186;29;20291;-38
2022/10/10 09:32:40;;;;;;;1.48;1.00;;;21.20;45.10;;;;;;4917072;29;20200;-40
2022/10/10 09:35:19;;;;;;;3.17;1.08;;;21.20;45.10;;;;;;4917459;29;20226;-36
2022/10/10 09:37:54;;;;;;;1.73;1.02;;;21.20;45.20;;;;;;4927805;29;20668;-37
2022/10/10 09:40:30;;;;;;;1.40;0.95;;;21.20;45.20;;;;;;4927826;29;20803;-36
2022/10/10 09:43:02;;;;;;;1.42;0.90;;;21.10;45.20;;;;;;4935270;29;20834;-36
2022/10/10 09:45:40;;;;;;;1.55;1.00;;;21.10;45.30;;;;;;4935469;29;20672;-40
2022/10/10 09:48:12;;;;;;;1.58;0.90;;;21.10;45.30;;;;;;4934869;29;20203;-36
2022/10/10 09:50:43;;;;;;;1.27;0.88;;;21.10;45.40;;;;;;4934808;29;20211;-38
2022/10/10 09:53:17;;;;;;;2.33;0.85;;;21.10;45.40;;;;;;4935000;29;20206;-40
2022/10/10 09:55:49;;;;;;;1.40;0.82;;;21.10;45.40;;;;;;4934737;29;20206;-36
2022/10/10 09:58:27;;;;;;;1.10;0.63;;;21.10;45.40;;;;;;4933756;29;20199;-36
2022/10/10 10:01:11;;;;;;;1.10;0.63;;;21.10;45.30;;;;;;4916208;29;20234;-41
2022/10/10 10:03:42;;;;;;;1.30;0.90;;;21.10;45.30;;;;;;4925773;29;20215;-46
2022/10/10 10:06:16;;;;;;;1.45;1.00;;;21.10;45.30;;;;;;4934700;29;20209;-42
2022/10/10 10:08:53;;;;;;;1.48;1.00;;;21.00;45.40;;;;;;4928620;29;20221;-44
2022/10/10 10:11:32;;;;;;;1.45;0.80;;;21.00;45.40;;;;;;4933923;29;20199;-43
2022/10/10 10:14:03;;;;;;;0.70;0.60;;;21.00;45.50;;;;;;4934534;29;20224;-39
2022/10/10 10:16:36;;;;;;;1.58;0.93;;;21.00;45.50;;;;;;4934062;29;20199;-42
2022/10/10 10:19:07;;;;;;;1.42;0.80;;;21.00;45.60;;;;;;4934155;29;20195;-40
2022/10/10 10:21:51;;;;;;;0.95;0.70;;;21.00;45.60;;;;;;4935094;29;20577;-45
2022/10/10 10:24:35;;;;;;;1.75;0.77;;;20.90;45.60;;;;;;4934218;29;20211;-50
2022/10/10 10:27:17;;;;;;;1.45;0.75;;;20.90;45.70;;;;;;4933336;29;20199;-41
2022/10/10 10:29:50;;;;;;;1.63;0.95;;;21.00;45.60;;;;;;4923400;29;20196;-50
2022/10/10 10:32:43;;;;;;;1.40;0.80;;;20.90;45.60;;;;;;4915602;29;20569;-44
2022/10/10 10:35:29;;;;;;;1.52;0.82;;;20.90;45.60;;;;;;4915284;29;20696;-45
2022/10/10 10:38:15;;;;;;;1.42;0.80;;;20.90;45.60;;;;;;4915799;29;20276;-42
2022/10/10 10:40:55;;;;;;;0.88;0.73;;;20.90;45.60;;;;;;4925664;29;20222;-46
2022/10/10 10:43:46;;;;;;;0.90;0.60;;;20.90;45.60;;;;;;4934531;29;20226;-37
2022/10/10 10:46:29;;;;;;;1.30;0.70;;;20.90;45.70;;;;;;4934893;29;20199;-39
2022/10/10 10:49:04;;;;;;;1.20;0.65;;;20.90;45.70;;;;;;4931627;29;20572;-42
2022/10/10 10:51:52;;;;;;;1.85;0.68;;;20.80;45.70;;;;;;4926173;29;20207;-37
2022/10/10 10:54:40;;;;;;;0.95;0.70;;;20.80;45.80;;;;;;4928277;29;20223;-41
2022/10/10 10:57:18;;;;;;;1.23;0.70;;;20.80;45.80;;;;;;4928165;29;20199;-47
2022/10/10 10:59:59;;;;;;;0.80;0.80;;;20.80;45.80;;;;;;4934070;29;20290;-40
2022/10/10 11:02:43;;;;;;;0.95;0.90;;;20.80;45.80;;;;;;4933889;29;20231;-39
2022/10/10 11:05:38;;;;;;;1.15;0.70;;;20.80;45.80;;;;;;4934774;29;20215;-36
2022/10/10 11:08:34;;;;;;;1.10;0.63;;;20.70;45.80;;;;;;4924741;29;20204;-36
2022/10/10 11:11:19;;;;;;;0.90;0.70;;;20.80;45.80;;;;;;4933653;29;20200;-42
2022/10/10 11:14:00;;;;;;;1.35;0.73;;;20.80;45.80;;;;;;4933662;29;20234;-37
2022/10/10 11:16:36;;;;;;;0.95;0.60;;;20.70;45.80;;;;;;4933008;29;20296;-37
2022/10/10 11:19:16;;;;;;;0.80;0.70;;;20.80;45.90;;;;;;4951222;29;20206;-36
2022/10/10 11:21:51;;;;;;;1.05;0.80;;;20.70;45.90;;;;;;4952646;28;20226;-39
2022/10/10 11:24:29;;;;;;;1.00;0.75;;;20.70;46.00;;;;;;4952551;28;20222;-43
2022/10/10 11:27:06;;;;;;;0.80;0.50;;;20.70;46.00;;;;;;4939706;28;20199;-38
2022/10/10 11:29:53;;;;;;;1.45;0.65;;;20.70;46.00;;;;;;4933217;29;20195;-45
2022/10/10 11:32:29;;;;;;;0.60;0.50;;;20.60;46.10;;;;;;4936360;29;20302;-37
2022/10/10 11:35:18;;;;;;;0.93;0.88;;;20.60;46.00;;;;;;4952211;28;20222;-36
2022/10/10 11:37:53;;;;;;;0.82;0.68;;;20.60;46.00;;;;;;4952378;28;20199;-37
2022/10/10 11:40:53;;;;;;;0.85;0.70;;;20.60;46.00;;;;;;4951857;28;20233;-39
2022/10/10 11:43:31;;;;;;;1.00;0.60;;;20.60;46.00;;;;;;4942150;28;20199;-37
2022/10/10 11:46:12;;;;;;;1.25;0.70;;;20.60;46.00;;;;;;4940345;28;20203;-36
2022/10/10 11:48:54;;;;;;;0.88;0.60;;;20.60;46.00;;;;;;4927655;29;20203;-44
2022/10/10 11:51:40;;;;;;;0.73;0.43;;;20.60;46.00;;;;;;4932288;29;20709;-41
2022/10/10 11:54:22;;;;;;;0.88;0.55;;;20.60;46.10;;;;;;4932839;29;20220;-44
2022/10/10 11:56:55;;;;;;;1.08;0.75;;;20.60;46.10;;;;;;4932877;29;20211;-36
2022/10/10 11:59:30;;;;;;;1.00;0.68;;;20.50;46.10;;;;;;4932399;29;20219;-45
2022/10/10 12:02:04;;;;;;;1.10;0.80;;;20.60;46.10;;;;;;4932300;29;20687;-38
2022/10/10 12:04:39;;;;;;;0.75;0.60;;;20.50;46.20;;;;;;4913474;29;20226;-38
2022/10/10 12:07:16;;;;;;;0.60;0.60;;;20.50;46.20;;;;;;4913189;29;20204;-40
2022/10/10 12:09:51;;;;;;;0.70;0.70;;;20.50;46.20;;;;;;4913380;29;20219;-39
2022/10/10 12:12:26;;;;;;;0.63;0.50;;;20.50;46.20;;;;;;4913793;29;20203;-37
2022/10/10 12:15:01;;;;;;;0.80;0.60;;;20.50;46.10;;;;;;4913931;29;20220;-41
2022/10/10 12:17:39;;;;;;;0.77;0.57;;;20.50;46.10;;;;;;4919577;29;20563;-37
2022/10/10 12:20:33;;;;;;;0.55;0.50;;;20.50;46.10;;;;;;4950962;28;20546;-37
2022/10/10 12:23:28;;;;;;;0.75;0.68;;;20.50;46.10;;;;;;4951357;28;20227;-38
2022/10/10 12:25:59;;;;;;;0.73;0.60;;;20.50;46.20;;;;;;4945261;28;20200;-39
2022/10/10 12:28:36;;;;;;;1.55;0.75;;;20.50;46.20;;;;;;4932239;29;20566;-37
2022/10/10 12:31:30;;;;;;;0.70;0.60;;;20.50;46.30;;;;;;4930642;29;20634;-37
2022/10/10 12:34:18;;;;;;;0.70;0.65;;;20.40;46.20;;;;;;4941557;28;20710;-41
2022/10/10 12:36:59;;;;;;;1.25;0.60;;;20.50;46.30;;;;;;4951553;28;20685;-38
2022/10/10 12:39:38;;;;;;;0.70;0.63;;;20.50;46.30;;;;;;4951488;28;20594;-37
2022/10/10 12:42:30;;;;;;;0.60;0.60;;;20.40;46.30;;;;;;4952058;28;20222;-39
2022/10/10 12:45:03;;;;;;;1.13;0.60;;;20.40;46.40;;;;;;4955272;28;20211;-37
2022/10/10 12:47:46;;;;;;;0.50;0.50;;;20.40;46.30;;;;;;4954703;28;20690;-38
2022/10/10 12:50:27;;;;;;;0.70;0.50;;;20.40;46.30;;;;;;4954954;28;20199;-40
2022/10/10 12:53:03;;;;;;;0.88;0.57;;;20.40;46.30;;;;;;4954981;28;20812;-37
2022/10/10 12:55:41;;;;;;;0.70;0.50;;;20.50;46.40;;;;;;4953300;28;20206;-40
2022/10/10 12:58:18;;;;;;;1.13;0.45;;;20.50;46.40;;;;;;4935389;29;20208;-38
2022/10/10 13:00:50;;;;;;;0.73;0.50;;;20.40;46.40;;;;;;4935406;29;20207;-39
2022/10/10 13:03:25;;;;;;;0.85;0.45;;;20.40;46.40;;;;;;4942012;28;20226;-38
2022/10/10 13:06:01;;;;;;;0.80;0.50;;;20.40;46.50;;;;;;4954155;28;20202;-38
2022/10/10 13:08:33;;;;;;;0.85;0.60;;;20.40;46.50;;;;;;4954741;28;20203;-43
2022/10/10 13:11:10;;;;;;;0.82;0.63;;;20.40;46.50;;;;;;4954828;28;20194;-41
2022/10/10 13:13:51;;;;;;;0.63;0.40;;;20.40;46.50;;;;;;4954311;28;20222;-36
2022/10/10 13:16:23;;;;;;;0.47;0.40;;;20.40;46.50;;;;;;4954492;28;20203;-46
2022/10/10 13:18:55;;;;;;;1.42;0.63;;;20.40;46.50;;;;;;4954188;28;20198;-38
2022/10/10 13:21:33;;;;;;;0.47;0.40;;;20.40;46.50;;;;;;4954569;28;20274;-36
2022/10/10 13:24:05;;;;;;;0.65;0.60;;;20.40;46.50;;;;;;4954504;28;20679;-44
2022/10/10 13:26:38;;;;;;;0.70;0.60;;;20.40;46.40;;;;;;4944825;28;20199;-41